Time;durP1;ratioP1;P1;durP2;ratioP2;P2;SDS_P1;SDS_P2;PMS_P1;PMS_P2;Temp;Humidity;BMP_temperature;BMP_pressure;BME280_temperature;BME280_humidity;BME280_pressure;Samples;Min_cycle;Max_cycle;Signal;HPM_P1;HPM_P2
2022/10/19 00:01:39;;;;;;;9.52;3.58;;;12.30;99.90;;;;;;5048079;28;20056;-64
2022/10/19 00:04:06;;;;;;;23.23;5.13;;;12.30;99.90;;;;;;5047541;28;20045;-64
2022/10/19 00:06:35;;;;;;;12.85;3.13;;;12.30;99.90;;;;;;5047926;28;20084;-64
2022/10/19 00:09:02;;;;;;;17.30;4.20;;;12.30;99.90;;;;;;5046424;28;20041;-64
2022/10/19 00:11:28;;;;;;;14.55;4.32;;;12.30;99.90;;;;;;5047859;28;20422;-64
2022/10/19 00:13:55;;;;;;;14.68;3.95;;;12.30;99.90;;;;;;5047714;28;20056;-65
2022/10/19 00:16:22;;;;;;;11.77;4.15;;;12.30;99.90;;;;;;5047915;28;20124;-66
2022/10/19 00:18:49;;;;;;;17.77;4.18;;;12.30;99.90;;;;;;5047429;28;20191;-64
2022/10/19 00:21:17;;;;;;;16.80;4.13;;;12.30;99.90;;;;;;5047291;28;20045;-64
2022/10/19 00:23:44;;;;;;;24.90;3.30;;;12.30;99.90;;;;;;5047561;28;20048;-65
2022/10/19 00:26:11;;;;;;;12.32;3.95;;;12.20;99.90;;;;;;5046513;28;20080;-64
2022/10/19 00:28:38;;;;;;;20.65;5.65;;;12.20;99.90;;;;;;5047458;28;20514;-64
2022/10/19 00:31:07;;;;;;;15.38;4.22;;;12.20;99.90;;;;;;5047500;28;20072;-65
2022/10/19 00:33:33;;;;;;;13.80;3.53;;;12.20;99.90;;;;;;5047057;28;20073;-64
2022/10/19 00:36:00;;;;;;;12.35;4.03;;;12.20;99.90;;;;;;5047561;28;20099;-64
2022/10/19 00:38:27;;;;;;;19.05;5.05;;;12.20;99.90;;;;;;5047298;28;20177;-63
2022/10/19 00:40:54;;;;;;;11.40;2.60;;;12.20;99.90;;;;;;5047412;28;20049;-64
2022/10/19 00:43:22;;;;;;;14.73;3.40;;;12.20;99.90;;;;;;5046621;28;20059;-63
2022/10/19 00:45:49;;;;;;;8.98;2.38;;;12.20;99.90;;;;;;5046190;28;20132;-63
2022/10/19 00:48:26;;;;;;;18.25;3.28;;;12.20;99.90;;;;;;5047356;28;20153;-63
2022/10/19 00:50:54;;;;;;;18.83;5.55;;;12.20;99.90;;;;;;5043230;28;20140;-62
2022/10/19 00:53:20;;;;;;;11.30;4.25;;;12.20;99.90;;;;;;5047181;28;20131;-63
2022/10/19 00:55:47;;;;;;;14.15;4.72;;;12.20;99.90;;;;;;5045694;28;20041;-64
2022/10/19 00:58:14;;;;;;;18.80;4.13;;;12.20;99.90;;;;;;5047395;28;20059;-64
2022/10/19 01:00:41;;;;;;;14.32;3.42;;;12.20;99.90;;;;;;5046949;28;20126;-63
2022/10/19 01:03:08;;;;;;;22.58;3.28;;;12.20;99.90;;;;;;5046449;28;20496;-64
2022/10/19 01:05:35;;;;;;;10.00;3.10;;;12.20;99.90;;;;;;5033138;28;20135;-65
2022/10/19 01:08:02;;;;;;;13.27;1.98;;;12.20;99.90;;;;;;5033089;28;20049;-64
2022/10/19 01:10:40;;;;;;;12.73;1.80;;;12.20;99.90;;;;;;5033030;28;20072;-64
2022/10/19 01:13:42;;;;;;;13.07;1.92;;;12.20;99.90;;;;;;5050351;28;20139;-64
2022/10/19 01:16:21;;;;;;;11.02;2.08;;;12.20;99.90;;;;;;4680685;28;10000183;-64
2022/10/19 01:19:20;;;;;;;12.43;2.25;;;12.20;99.90;;;;;;5050750;28;20152;-65
2022/10/19 01:21:49;;;;;;;9.80;1.90;;;12.20;99.90;;;;;;5049762;28;20044;-64
2022/10/19 01:24:38;;;;;;;16.35;2.63;;;12.20;99.90;;;;;;5049178;28;20041;-65
2022/10/19 01:27:19;;;;;;;7.82;1.67;;;12.30;99.90;;;;;;5047246;28;20571;-65
2022/10/19 01:30:05;;;;;;;10.57;1.80;;;12.20;99.90;;;;;;5049247;28;20048;-65
2022/10/19 01:32:48;;;;;;;10.65;1.52;;;12.20;99.90;;;;;;5048256;28;20144;-64
2022/10/19 01:35:34;;;;;;;20.00;1.70;;;12.20;99.90;;;;;;5032753;28;20044;-64
2022/10/19 01:38:10;;;;;;;19.52;2.30;;;12.20;99.90;;;;;;5032620;28;20049;-65
2022/10/19 01:41:07;;;;;;;11.95;2.88;;;12.20;99.90;;;;;;5032869;28;20059;-63
2022/10/19 01:43:37;;;;;;;11.90;2.50;;;12.20;99.90;;;;;;5049160;28;20411;-64
2022/10/19 01:46:17;;;;;;;18.95;2.97;;;12.20;99.90;;;;;;5048780;28;20059;-63
2022/10/19 01:48:49;;;;;;;8.18;2.05;;;12.20;99.90;;;;;;5048991;28;20153;-64
2022/10/19 01:51:18;;;;;;;9.50;2.75;;;12.20;99.90;;;;;;5048627;28;20072;-64
2022/10/19 01:53:48;;;;;;;8.70;3.17;;;12.20;99.90;;;;;;5032552;28;20041;-64
2022/10/19 01:56:16;;;;;;;13.38;3.25;;;12.20;99.90;;;;;;5047517;28;20041;-64
2022/10/19 01:58:43;;;;;;;10.90;3.97;;;12.20;99.90;;;;;;5031215;28;20045;-64
2022/10/19 02:01:10;;;;;;;16.85;5.07;;;12.20;99.90;;;;;;5047452;28;20045;-63
2022/10/19 02:03:41;;;;;;;18.77;3.22;;;12.20;99.90;;;;;;5031767;28;20041;-64
2022/10/19 02:06:09;;;;;;;13.23;4.45;;;12.20;99.90;;;;;;5031785;28;20041;-63
2022/10/19 02:08:53;;;;;;;15.10;3.55;;;12.20;99.90;;;;;;5048479;28;20444;-64
2022/10/19 02:11:21;;;;;;;14.13;3.72;;;12.30;99.90;;;;;;5049639;28;20419;-64
2022/10/19 02:13:53;;;;;;;17.63;4.40;;;12.30;99.90;;;;;;5031527;28;20136;-64
2022/10/19 02:16:29;;;;;;;13.43;2.72;;;12.30;99.90;;;;;;5047021;28;20118;-65
2022/10/19 02:18:55;;;;;;;11.98;2.28;;;12.20;99.90;;;;;;5048152;28;20585;-64
2022/10/19 02:21:22;;;;;;;13.57;3.67;;;12.20;99.90;;;;;;5031750;28;20049;-63
2022/10/19 02:23:49;;;;;;;9.20;1.85;;;12.20;99.90;;;;;;5048087;28;20064;-64
2022/10/19 02:26:20;;;;;;;11.52;1.90;;;12.30;99.90;;;;;;5049423;28;20049;-65
2022/10/19 02:28:46;;;;;;;24.80;3.63;;;12.30;99.90;;;;;;5047900;28;20084;-65
2022/10/19 02:31:13;;;;;;;17.13;4.07;;;12.30;99.90;;;;;;5048322;28;20045;-64
2022/10/19 02:33:40;;;;;;;13.52;2.47;;;12.30;99.90;;;;;;5048894;28;20045;-64
2022/10/19 02:36:07;;;;;;;13.85;3.92;;;12.30;99.90;;;;;;5048156;28;20717;-65
2022/10/19 02:38:34;;;;;;;15.00;2.35;;;12.30;99.90;;;;;;5047932;28;20076;-64
2022/10/19 02:41:12;;;;;;;13.13;2.70;;;12.30;99.90;;;;;;5049203;28;20063;-64
2022/10/19 02:43:40;;;;;;;16.00;5.15;;;12.30;99.90;;;;;;5048874;28;20048;-64
2022/10/19 02:46:18;;;;;;;13.70;4.35;;;12.30;99.90;;;;;;5047710;28;20055;-65
2022/10/19 02:48:45;;;;;;;11.30;4.70;;;12.30;99.90;;;;;;5047760;28;20128;-64
2022/10/19 02:51:29;;;;;;;16.98;4.28;;;12.30;99.90;;;;;;5031159;28;20131;-65
2022/10/19 02:53:55;;;;;;;13.60;3.80;;;12.30;99.90;;;;;;5048392;28;20048;-65
2022/10/19 02:56:26;;;;;;;18.10;3.72;;;12.30;99.90;;;;;;5047792;28;20095;-64
2022/10/19 02:58:53;;;;;;;12.98;3.17;;;12.30;99.90;;;;;;5048741;28;20131;-67
2022/10/19 03:01:20;;;;;;;14.18;3.20;;;12.30;99.90;;;;;;5048938;28;20129;-65
2022/10/19 03:03:47;;;;;;;11.68;2.65;;;12.30;99.90;;;;;;5048362;28;20048;-67
2022/10/19 03:06:14;;;;;;;19.58;3.35;;;12.30;99.90;;;;;;5047274;28;20067;-64
2022/10/19 03:08:40;;;;;;;12.00;2.75;;;12.30;99.90;;;;;;5047564;28;20132;-64
2022/10/19 03:11:07;;;;;;;17.15;3.80;;;12.30;99.90;;;;;;5048748;28;20071;-64
2022/10/19 03:13:34;;;;;;;13.10;3.33;;;12.30;99.90;;;;;;5048175;28;20051;-64
2022/10/19 03:16:10;;;;;;;19.88;4.05;;;12.40;99.90;;;;;;5048587;28;20041;-64
2022/10/19 03:18:37;;;;;;;20.50;4.85;;;12.30;99.90;;;;;;5048225;28;20076;-64
2022/10/19 03:21:06;;;;;;;18.85;4.68;;;12.30;99.90;;;;;;5048561;28;20148;-63
2022/10/19 03:23:33;;;;;;;15.23;4.97;;;12.40;99.90;;;;;;5046856;28;20128;-63
2022/10/19 03:26:00;;;;;;;18.70;5.05;;;12.40;99.90;;;;;;5044792;28;20123;-63
2022/10/19 03:28:27;;;;;;;25.35;5.90;;;12.40;99.90;;;;;;5048368;28;20128;-63
2022/10/19 03:30:54;;;;;;;25.02;6.47;;;12.40;99.90;;;;;;5046981;28;20049;-64
2022/10/19 03:33:20;;;;;;;26.35;8.02;;;12.40;99.90;;;;;;5047950;28;20123;-64
2022/10/19 03:35:47;;;;;;;21.13;7.95;;;12.40;99.90;;;;;;5048329;28;20052;-63
2022/10/19 03:38:14;;;;;;;24.50;6.43;;;12.40;99.90;;;;;;5048147;28;20175;-63
2022/10/19 03:40:41;;;;;;;16.42;5.68;;;12.40;99.90;;;;;;5048159;28;20124;-64
2022/10/19 03:43:08;;;;;;;19.67;5.30;;;12.40;99.90;;;;;;5048106;28;20087;-63
2022/10/19 03:45:34;;;;;;;16.63;4.60;;;12.40;99.90;;;;;;5048414;28;20322;-63
2022/10/19 03:48:01;;;;;;;18.35;4.35;;;12.40;99.90;;;;;;5048110;28;20144;-64
2022/10/19 03:50:28;;;;;;;20.92;4.00;;;12.40;99.90;;;;;;5047962;28;20411;-64
2022/10/19 03:52:54;;;;;;;25.52;3.33;;;12.40;99.90;;;;;;5048010;28;20048;-64
2022/10/19 03:55:21;;;;;;;20.35;3.67;;;12.40;99.90;;;;;;5047937;28;20094;-64
2022/10/19 03:57:48;;;;;;;24.48;4.60;;;12.40;99.90;;;;;;5048150;28;20060;-64
2022/10/19 04:00:15;;;;;;;16.67;1.85;;;12.40;99.90;;;;;;5047627;28;20124;-63
2022/10/19 04:02:41;;;;;;;12.10;2.78;;;12.40;99.90;;;;;;5041406;28;20050;-64
2022/10/19 04:05:08;;;;;;;16.90;2.30;;;12.40;99.90;;;;;;5031160;28;20047;-64
2022/10/19 04:07:35;;;;;;;16.45;3.38;;;12.40;99.90;;;;;;5047879;28;20060;-65
2022/10/19 04:10:02;;;;;;;14.05;1.95;;;12.40;99.90;;;;;;5048009;28;20046;-64
2022/10/19 04:12:29;;;;;;;10.10;3.25;;;12.40;99.90;;;;;;5047489;28;20069;-64
2022/10/19 04:14:55;;;;;;;14.13;2.10;;;12.40;99.90;;;;;;5047791;28;20044;-65
2022/10/19 04:17:24;;;;;;;17.15;2.95;;;12.40;99.90;;;;;;5047460;28;20045;-64
2022/10/19 04:19:50;;;;;;;17.90;2.17;;;12.40;99.90;;;;;;5047990;28;20112;-64
2022/10/19 04:22:17;;;;;;;17.38;2.35;;;12.40;99.90;;;;;;5047359;28;20041;-65
2022/10/19 04:24:44;;;;;;;14.05;2.78;;;12.40;99.90;;;;;;5048107;28;20792;-65
2022/10/19 04:27:11;;;;;;;21.65;4.85;;;12.40;99.90;;;;;;5047957;28;20055;-64
2022/10/19 04:29:37;;;;;;;15.35;2.33;;;12.40;99.90;;;;;;5048120;28;20063;-65
2022/10/19 04:32:04;;;;;;;13.95;2.20;;;12.40;99.90;;;;;;5047569;28;20127;-65
2022/10/19 04:34:31;;;;;;;16.98;3.17;;;12.40;99.90;;;;;;5047608;28;20269;-65
2022/10/19 04:37:03;;;;;;;14.63;2.67;;;12.40;99.90;;;;;;5047321;28;20045;-65
2022/10/19 04:39:30;;;;;;;16.65;2.53;;;12.40;99.90;;;;;;5050700;28;20049;-64
2022/10/19 04:41:56;;;;;;;19.52;2.83;;;12.40;99.90;;;;;;5051109;28;20048;-65
2022/10/19 04:44:23;;;;;;;22.10;2.72;;;12.40;99.90;;;;;;5051404;28;20073;-63
2022/10/19 04:46:55;;;;;;;15.82;3.42;;;12.40;99.90;;;;;;5049911;28;20061;-64
2022/10/19 04:49:21;;;;;;;22.80;3.45;;;12.40;99.90;;;;;;5051193;28;20045;-64
2022/10/19 04:51:48;;;;;;;21.48;4.22;;;12.40;99.90;;;;;;5051098;28;20425;-65
2022/10/19 04:54:15;;;;;;;23.42;4.50;;;12.40;99.90;;;;;;5051501;28;20048;-65
2022/10/19 04:56:41;;;;;;;17.25;4.03;;;12.40;99.90;;;;;;5050887;28;20135;-65
2022/10/19 04:59:08;;;;;;;22.55;3.28;;;12.40;99.90;;;;;;5050957;28;20515;-65
2022/10/19 05:01:35;;;;;;;20.40;3.20;;;12.40;99.90;;;;;;5051259;28;20132;-65
2022/10/19 05:04:02;;;;;;;20.65;3.67;;;12.40;99.90;;;;;;5050982;28;20072;-65
2022/10/19 05:06:29;;;;;;;12.10;2.47;;;12.40;99.90;;;;;;5050821;28;20055;-66
2022/10/19 05:08:56;;;;;;;11.93;2.67;;;12.40;99.90;;;;;;5050605;28;20553;-64
2022/10/19 05:11:23;;;;;;;17.77;2.72;;;12.40;99.90;;;;;;5050665;28;20053;-65
2022/10/19 05:13:50;;;;;;;21.33;5.00;;;12.40;99.90;;;;;;5050637;28;20053;-63
2022/10/19 05:16:19;;;;;;;14.73;2.65;;;12.40;99.90;;;;;;5049516;28;20064;-63
2022/10/19 05:18:47;;;;;;;13.30;2.90;;;12.50;99.90;;;;;;5050313;28;20132;-64
2022/10/19 05:21:14;;;;;;;18.83;4.80;;;12.40;99.90;;;;;;5050499;28;20040;-64
2022/10/19 05:23:41;;;;;;;15.20;3.58;;;12.40;99.90;;;;;;5050171;28;20041;-64
2022/10/19 05:26:12;;;;;;;22.05;3.92;;;12.40;99.90;;;;;;5050428;28;20083;-63
2022/10/19 05:28:39;;;;;;;17.30;3.28;;;12.40;99.90;;;;;;5050344;28;20132;-64
2022/10/19 05:31:11;;;;;;;13.52;2.88;;;12.40;99.90;;;;;;5050331;28;20508;-66
2022/10/19 05:33:38;;;;;;;17.20;3.70;;;12.40;99.90;;;;;;5049792;28;20051;-64
2022/10/19 05:36:17;;;;;;;25.00;4.47;;;12.40;99.90;;;;;;5049097;28;20127;-61
2022/10/19 05:38:48;;;;;;;6.85;2.60;;;12.40;99.90;;;;;;5050062;28;20582;-64
2022/10/19 05:41:15;;;;;;;19.10;3.58;;;12.40;99.90;;;;;;5050338;28;20312;-65
2022/10/19 05:43:42;;;;;;;24.30;3.63;;;12.40;99.90;;;;;;5050023;28;20047;-64
2022/10/19 05:46:11;;;;;;;23.33;4.35;;;12.40;99.90;;;;;;5050064;28;20045;-64
2022/10/19 05:48:38;;;;;;;24.98;4.03;;;12.40;99.90;;;;;;5048284;28;20049;-65
2022/10/19 05:51:05;;;;;;;16.80;3.92;;;12.30;99.90;;;;;;5050047;28;20590;-65
2022/10/19 05:53:32;;;;;;;20.15;3.85;;;12.30;99.90;;;;;;5049534;28;20530;-64
2022/10/19 05:55:59;;;;;;;15.35;3.88;;;12.30;99.90;;;;;;5046278;28;20053;-65
2022/10/19 05:58:26;;;;;;;19.33;3.90;;;12.30;99.90;;;;;;5049793;28;20470;-64
2022/10/19 06:00:53;;;;;;;15.85;3.40;;;12.40;99.90;;;;;;5049624;28;20139;-65
2022/10/19 06:03:21;;;;;;;19.88;3.80;;;12.40;99.90;;;;;;5049348;28;20049;-63
2022/10/19 06:05:48;;;;;;;14.57;4.00;;;12.30;99.90;;;;;;5049483;28;20522;-65
2022/10/19 06:08:18;;;;;;;24.35;4.50;;;12.30;99.90;;;;;;5048280;28;20273;-64
2022/10/19 06:10:45;;;;;;;21.20;4.88;;;12.30;99.90;;;;;;5049622;28;20074;-64
2022/10/19 06:13:12;;;;;;;21.70;4.55;;;12.30;99.90;;;;;;5049321;28;20072;-64
2022/10/19 06:15:39;;;;;;;27.48;5.55;;;12.40;99.90;;;;;;5048880;28;20136;-65
2022/10/19 06:18:07;;;;;;;26.58;6.32;;;12.40;99.90;;;;;;5049220;28;20466;-65
2022/10/19 06:20:35;;;;;;;24.50;6.93;;;12.40;99.90;;;;;;5047986;28;20044;-65
2022/10/19 06:23:01;;;;;;;22.80;6.63;;;12.40;99.90;;;;;;5047902;28;20052;-66
2022/10/19 06:25:29;;;;;;;27.02;5.75;;;12.40;99.90;;;;;;5048601;28;20144;-64
2022/10/19 06:27:56;;;;;;;25.77;6.72;;;12.50;99.90;;;;;;5049135;28;20051;-65
2022/10/19 06:30:23;;;;;;;30.30;6.97;;;12.50;99.90;;;;;;5048683;28;20044;-64
2022/10/19 06:32:50;;;;;;;24.48;5.45;;;12.50;99.90;;;;;;5049177;28;20044;-65
2022/10/19 06:35:17;;;;;;;20.23;6.07;;;12.50;99.90;;;;;;5048685;28;20045;-65
2022/10/19 06:37:44;;;;;;;23.73;5.63;;;12.50;99.90;;;;;;5048566;28;20045;-65
2022/10/19 06:40:11;;;;;;;20.50;4.05;;;12.60;99.90;;;;;;5048825;28;20055;-64
2022/10/19 06:42:40;;;;;;;23.90;5.22;;;12.60;99.90;;;;;;5047725;28;20045;-65
2022/10/19 06:45:07;;;;;;;16.45;4.13;;;12.60;99.90;;;;;;5048376;28;20290;-66
2022/10/19 06:47:35;;;;;;;19.92;4.45;;;12.60;99.90;;;;;;5048458;28;20140;-65
2022/10/19 06:50:05;;;;;;;17.38;4.55;;;12.50;99.90;;;;;;5048923;28;20041;-64
2022/10/19 06:52:33;;;;;;;18.65;3.75;;;12.60;99.90;;;;;;5048433;28;20053;-64
2022/10/19 06:55:00;;;;;;;20.50;4.35;;;12.60;99.90;;;;;;5047498;28;20052;-63
2022/10/19 06:57:27;;;;;;;24.48;4.85;;;12.60;99.90;;;;;;5048171;28;20077;-64
2022/10/19 06:59:54;;;;;;;18.98;3.45;;;12.70;99.90;;;;;;5048834;28;20045;-65
2022/10/19 07:02:21;;;;;;;24.25;4.07;;;12.70;99.90;;;;;;5048007;28;20122;-67
2022/10/19 07:04:48;;;;;;;15.73;3.33;;;12.70;99.90;;;;;;5048467;28;20116;-64
2022/10/19 07:07:15;;;;;;;26.92;4.22;;;12.70;99.90;;;;;;5047758;28;20049;-66
2022/10/19 07:09:41;;;;;;;19.77;3.30;;;12.70;99.90;;;;;;5048438;28;20056;-65
2022/10/19 07:12:09;;;;;;;24.45;3.60;;;12.80;99.90;;;;;;5047683;28;20048;-65
2022/10/19 07:14:37;;;;;;;13.68;3.60;;;12.80;99.90;;;;;;5048621;28;20037;-66
2022/10/19 07:17:14;;;;;;;12.93;3.30;;;12.80;99.90;;;;;;4696499;28;9999895;-65
2022/10/19 07:19:40;;;;;;;20.42;4.68;;;12.80;99.90;;;;;;5044896;28;20057;-66
2022/10/19 07:22:07;;;;;;;18.55;3.67;;;12.80;99.90;;;;;;5045232;28;20508;-65
2022/10/19 07:24:34;;;;;;;16.73;2.90;;;12.90;99.90;;;;;;5045359;28;20139;-66
2022/10/19 07:27:01;;;;;;;19.67;3.85;;;12.90;99.90;;;;;;5045198;28;20123;-67
2022/10/19 07:29:28;;;;;;;21.48;3.15;;;12.90;99.90;;;;;;5045077;28;20143;-65
2022/10/19 07:31:54;;;;;;;20.30;3.05;;;13.00;99.90;;;;;;5044895;28;20080;-65
2022/10/19 07:34:24;;;;;;;18.27;3.33;;;13.00;99.90;;;;;;5046318;28;20045;-65
2022/10/19 07:36:54;;;;;;;25.67;5.30;;;13.00;99.90;;;;;;5047310;28;20053;-65
2022/10/19 07:39:21;;;;;;;22.55;3.72;;;13.10;99.90;;;;;;5046919;28;20080;-65
2022/10/19 07:41:48;;;;;;;16.98;3.25;;;13.10;99.90;;;;;;5047109;28;20049;-64
2022/10/19 07:44:15;;;;;;;18.83;3.25;;;13.20;99.90;;;;;;5046999;28;20591;-64
2022/10/19 07:46:41;;;;;;;15.65;3.25;;;13.20;99.90;;;;;;5045256;28;20055;-64
2022/10/19 07:49:12;;;;;;;13.45;2.42;;;13.20;99.90;;;;;;5048742;28;20040;-65
2022/10/19 07:51:39;;;;;;;20.50;2.65;;;13.30;99.90;;;;;;5044080;28;20051;-66
2022/10/19 07:54:08;;;;;;;23.80;4.00;;;13.30;99.90;;;;;;5043393;28;20557;-65
2022/10/19 07:56:34;;;;;;;24.88;3.42;;;13.30;99.90;;;;;;5043708;28;20063;-65
2022/10/19 07:59:03;;;;;;;18.90;3.47;;;13.40;99.90;;;;;;5044333;28;20168;-65
2022/10/19 08:01:32;;;;;;;12.23;2.60;;;13.40;99.90;;;;;;5044364;28;20472;-65
2022/10/19 08:03:59;;;;;;;11.35;3.40;;;13.40;99.90;;;;;;5044585;28;20101;-65
2022/10/19 08:06:46;;;;;;;17.35;4.07;;;13.50;99.90;;;;;;5044340;28;20048;-65
2022/10/19 08:09:13;;;;;;;16.10;3.05;;;13.60;99.90;;;;;;5044652;28;20148;-66
2022/10/19 08:12:00;;;;;;;21.23;3.22;;;13.60;99.90;;;;;;5045093;28;20049;-65
2022/10/19 08:14:27;;;;;;;26.88;3.58;;;13.70;99.90;;;;;;5047228;28;20459;-64
2022/10/19 08:16:53;;;;;;;21.70;4.60;;;13.70;99.90;;;;;;5051221;28;20048;-64
2022/10/19 08:19:21;;;;;;;18.63;3.78;;;13.80;99.90;;;;;;5049797;28;20044;-64
2022/10/19 08:21:48;;;;;;;28.30;3.65;;;13.80;99.90;;;;;;5051368;28;20049;-67
2022/10/19 08:24:16;;;;;;;23.92;3.42;;;13.80;99.90;;;;;;5049983;28;20653;-67
2022/10/19 08:26:43;;;;;;;17.02;3.92;;;13.90;99.90;;;;;;5050533;28;20055;-67
2022/10/19 08:29:12;;;;;;;24.73;3.92;;;14.00;99.90;;;;;;5048499;28;20053;-66
2022/10/19 08:31:39;;;;;;;21.35;4.22;;;14.00;99.90;;;;;;5039902;28;20124;-66
2022/10/19 08:34:06;;;;;;;21.40;4.20;;;14.10;99.90;;;;;;5048402;28;20052;-64
2022/10/19 08:36:34;;;;;;;27.88;4.63;;;14.20;99.90;;;;;;5047769;28;20052;-64
2022/10/19 08:39:02;;;;;;;15.65;3.47;;;14.20;99.90;;;;;;5049872;28;20052;-65
2022/10/19 08:41:34;;;;;;;20.20;3.15;;;14.20;99.90;;;;;;5047048;28;20072;-64
2022/10/19 08:44:26;;;;;;;14.13;3.05;;;14.40;99.90;;;;;;5050077;28;20053;-65
2022/10/19 08:47:31;;;;;;;19.20;3.38;;;14.40;99.90;;;;;;5049244;28;20693;-63
2022/10/19 08:49:57;;;;;;;;;;;14.50;99.90;;;;;;5049712;28;20045;-66
2022/10/19 08:52:31;;;;;;;20.65;3.25;;;14.60;99.90;;;;;;5048886;28;19975;-64
2022/10/19 08:55:07;;;;;;;27.70;5.35;;;14.70;99.90;;;;;;5047779;28;20049;-63
2022/10/19 08:57:56;;;;;;;16.88;3.75;;;14.70;99.90;;;;;;5039016;28;20053;-63
2022/10/19 09:00:29;;;;;;;20.23;5.03;;;14.70;99.90;;;;;;5047557;28;20048;-64
2022/10/19 09:03:14;;;;;;;21.75;4.55;;;14.80;99.90;;;;;;5049071;28;20056;-64
2022/10/19 09:06:13;;;;;;;25.48;4.40;;;14.80;99.90;;;;;;5050706;28;20061;-64
2022/10/19 09:08:40;;;;;;;22.05;4.53;;;14.80;99.90;;;;;;5034186;28;20045;-65
2022/10/19 09:11:08;;;;;;;16.55;3.92;;;14.70;99.90;;;;;;5050664;28;20492;-62
2022/10/19 09:13:45;;;;;;;19.58;4.13;;;14.70;99.90;;;;;;5049976;28;20084;-63
2022/10/19 09:16:33;;;;;;;15.07;4.03;;;14.70;99.90;;;;;;5049122;28;20037;-64
2022/10/19 09:19:01;;;;;;;17.45;4.00;;;14.70;99.90;;;;;;5049091;28;20053;-64
2022/10/19 09:21:41;;;;;;;19.80;4.20;;;14.70;99.90;;;;;;5048810;28;20044;-64
2022/10/19 09:24:27;;;;;;;18.02;3.75;;;14.70;99.90;;;;;;5033190;28;20060;-64
2022/10/19 09:27:00;;;;;;;20.95;4.05;;;14.70;99.90;;;;;;5050398;28;20475;-64
2022/10/19 09:29:38;;;;;;;15.93;4.05;;;14.70;99.90;;;;;;5050153;28;20284;-64
2022/10/19 09:32:13;;;;;;;20.45;3.58;;;14.70;99.90;;;;;;5032451;28;20045;-65
2022/10/19 09:34:50;;;;;;;23.80;4.28;;;14.70;99.90;;;;;;5033289;28;20053;-64
2022/10/19 09:37:18;;;;;;;23.95;4.28;;;14.70;99.90;;;;;;5048534;28;20070;-64
2022/10/19 09:39:52;;;;;;;25.50;4.40;;;14.70;99.90;;;;;;5049239;28;20045;-64
2022/10/19 09:42:29;;;;;;;20.80;3.30;;;14.80;99.90;;;;;;5049650;28;20093;-65
2022/10/19 09:44:57;;;;;;;30.13;5.28;;;14.90;99.90;;;;;;5050325;28;20095;-64
2022/10/19 09:47:33;;;;;;;20.52;4.25;;;15.00;99.90;;;;;;5048392;28;20080;-65
2022/10/19 09:50:41;;;;;;;17.95;4.47;;;15.10;99.90;;;;;;5050078;28;20055;-63
2022/10/19 09:53:18;;;;;;;22.23;4.90;;;15.10;99.90;;;;;;5027230;28;20080;-64
2022/10/19 09:55:48;;;;;;;26.08;4.28;;;15.20;99.90;;;;;;4976027;28;20108;-65
2022/10/19 09:58:20;;;;;;;20.38;5.68;;;15.20;99.90;;;;;;5013234;28;20048;-65
2022/10/19 10:00:53;;;;;;;22.23;4.25;;;15.20;99.90;;;;;;5048539;28;20140;-65
2022/10/19 10:03:31;;;;;;;28.23;4.57;;;15.30;99.90;;;;;;5032385;28;20107;-65
2022/10/19 10:06:01;;;;;;;23.10;6.00;;;15.30;99.90;;;;;;5050183;28;20053;-64
2022/10/19 10:08:33;;;;;;;22.55;4.93;;;15.30;99.90;;;;;;5048024;28;20137;-64
2022/10/19 10:11:22;;;;;;;23.58;5.47;;;15.40;99.90;;;;;;5048201;28;20079;-64
2022/10/19 10:13:50;;;;;;;14.98;3.78;;;15.50;99.90;;;;;;5049262;28;20087;-64
2022/10/19 10:16:19;;;;;;;13.63;4.13;;;15.50;99.90;;;;;;5048208;28;20048;-64
2022/10/19 10:19:07;;;;;;;22.17;4.47;;;15.50;99.90;;;;;;5049279;28;20076;-63
2022/10/19 10:21:46;;;;;;;13.35;3.70;;;15.50;99.90;;;;;;5029596;28;20093;-65
2022/10/19 10:24:13;;;;;;;26.02;3.88;;;15.50;99.90;;;;;;5044972;28;20084;-63
2022/10/19 10:26:44;;;;;;;24.50;4.78;;;15.50;99.90;;;;;;5049053;28;20122;-64
2022/10/19 10:29:19;;;;;;;21.70;4.88;;;15.50;99.90;;;;;;5048777;28;20511;-65
2022/10/19 10:32:05;;;;;;;17.52;4.10;;;15.60;99.90;;;;;;4697069;28;9999842;-65
2022/10/19 10:34:35;;;;;;;16.75;4.32;;;15.60;99.90;;;;;;5048074;28;20057;-64
2022/10/19 10:37:34;;;;;;;19.25;4.15;;;15.70;99.90;;;;;;5028501;28;20099;-66
2022/10/19 10:40:02;;;;;;;22.05;4.22;;;15.70;99.90;;;;;;5046917;28;20496;-64
2022/10/19 10:42:39;;;;;;;15.73;4.30;;;15.70;99.90;;;;;;5031283;28;20049;-65
2022/10/19 10:45:18;;;;;;;29.13;4.28;;;15.70;99.90;;;;;;5031745;28;20321;-65
2022/10/19 10:47:47;;;;;;;29.30;4.63;;;15.70;99.90;;;;;;5047738;28;20586;-63
2022/10/19 10:50:22;;;;;;;23.55;4.25;;;15.80;99.90;;;;;;5048190;28;20075;-63
2022/10/19 10:52:59;;;;;;;15.68;3.38;;;15.80;99.90;;;;;;5047635;28;20064;-64
2022/10/19 10:55:26;;;;;;;20.25;4.22;;;15.70;99.90;;;;;;5048347;28;20045;-64
2022/10/19 10:58:09;;;;;;;27.70;4.47;;;15.80;99.90;;;;;;5048763;28;20106;-63
2022/10/19 11:00:39;;;;;;;14.77;4.50;;;15.80;99.90;;;;;;5047448;28;20087;-64
2022/10/19 11:03:11;;;;;;;19.48;4.75;;;15.80;99.90;;;;;;5047239;28;20044;-63
2022/10/19 11:05:40;;;;;;;31.10;5.75;;;15.80;99.90;;;;;;5047000;28;20045;-64
2022/10/19 11:08:17;;;;;;;22.95;4.45;;;15.90;99.90;;;;;;5028583;28;20469;-63
2022/10/19 11:10:59;;;;;;;19.63;3.75;;;15.90;99.90;;;;;;5042851;28;20045;-64
2022/10/19 11:13:44;;;;;;;22.15;4.13;;;15.90;99.90;;;;;;5026953;28;20132;-67
2022/10/19 11:16:16;;;;;;;21.35;3.58;;;16.00;99.90;;;;;;5046100;28;20137;-64
2022/10/19 11:18:54;;;;;;;17.95;4.15;;;16.00;99.90;;;;;;5030653;28;20169;-65
2022/10/19 11:21:29;;;;;;;25.85;4.70;;;16.10;99.90;;;;;;5031516;28;20083;-64
2022/10/19 11:24:23;;;;;;;20.73;4.80;;;16.10;99.90;;;;;;5048367;28;20045;-64
2022/10/19 11:27:05;;;;;;;;;;;16.10;99.90;;;;;;5045827;28;20492;-66
2022/10/19 11:30:11;;;;;;;22.20;4.00;;;16.00;99.90;;;;;;5047820;28;19967;-65
2022/10/19 11:33:03;;;;;;;19.50;4.80;;;16.00;99.90;;;;;;5035758;28;20522;-65
2022/10/19 11:35:41;;;;;;;14.23;3.63;;;16.10;99.90;;;;;;5031516;28;20055;-65
2022/10/19 11:38:30;;;;;;;20.77;4.47;;;16.20;99.90;;;;;;5047798;28;20510;-63
2022/10/19 11:41:03;;;;;;;19.08;4.05;;;16.20;99.90;;;;;;5035587;28;20045;-64
2022/10/19 11:44:12;;;;;;;19.35;4.30;;;16.20;99.90;;;;;;5046805;28;20049;-64
2022/10/19 11:47:20;;;;;;;21.23;4.10;;;16.30;99.90;;;;;;5047769;28;20128;-64
2022/10/19 11:50:05;;;;;;;30.30;5.97;;;16.20;99.90;;;;;;5014913;28;20059;-65
2022/10/19 11:52:39;;;;;;;26.63;5.20;;;16.20;99.90;;;;;;5046604;28;20288;-65
2022/10/19 11:55:23;;;;;;;25.73;5.35;;;16.20;99.90;;;;;;5046445;28;20059;-64
2022/10/19 11:58:10;;;;;;;18.70;4.47;;;16.20;99.90;;;;;;5046209;28;20135;-64
2022/10/19 12:00:43;;;;;;;17.13;3.38;;;16.20;99.90;;;;;;5047777;28;20052;-67
2022/10/19 12:03:17;;;;;;;16.67;3.37;;;16.30;99.90;;;;;;5030036;28;20124;-64
2022/10/19 12:05:50;;;;;;;15.25;3.47;;;16.40;99.90;;;;;;5047527;28;20332;-64
2022/10/19 12:08:55;;;;;;;18.80;4.10;;;16.40;99.90;;;;;;5047129;28;20136;-61
2022/10/19 12:11:49;;;;;;;16.80;4.13;;;16.40;99.90;;;;;;5047247;28;20290;-65
2022/10/19 12:14:18;;;;;;;31.23;4.60;;;16.40;99.90;;;;;;5037547;28;20076;-66
2022/10/19 12:16:48;;;;;;;23.08;4.13;;;16.30;99.90;;;;;;5046080;28;20041;-64
2022/10/19 12:19:18;;;;;;;28.65;5.75;;;16.30;99.90;;;;;;5046860;28;20057;-63
2022/10/19 12:21:45;;;;;;;20.27;4.22;;;16.30;99.90;;;;;;5029965;28;20505;-65
2022/10/19 12:24:20;;;;;;;25.20;5.60;;;16.30;99.90;;;;;;5046125;28;20041;-65
2022/10/19 12:26:47;;;;;;;18.70;4.15;;;16.30;99.90;;;;;;5030551;28;20068;-65
2022/10/19 12:29:22;;;;;;;27.58;4.75;;;16.40;99.90;;;;;;5045716;28;20072;-62
2022/10/19 12:31:49;;;;;;;17.23;4.28;;;16.40;99.90;;;;;;5030467;28;20052;-64
2022/10/19 12:34:22;;;;;;;25.63;4.80;;;16.50;99.90;;;;;;5045816;28;20459;-64
2022/10/19 12:36:55;;;;;;;24.00;4.55;;;16.50;99.90;;;;;;5047221;28;20048;-63
2022/10/19 12:39:30;;;;;;;18.23;3.88;;;16.60;99.90;;;;;;5045104;28;20065;-63
2022/10/19 12:42:03;;;;;;;18.52;4.05;;;16.70;99.90;;;;;;5046202;28;20084;-64
2022/10/19 12:44:59;;;;;;;20.60;4.43;;;16.70;99.90;;;;;;5046356;28;20041;-64
2022/10/19 12:47:26;;;;;;;21.13;3.88;;;16.80;99.90;;;;;;5044455;28;20825;-63
2022/10/19 12:49:56;;;;;;;28.20;5.55;;;16.90;99.90;;;;;;5047190;28;20073;-64
2022/10/19 12:52:43;;;;;;;26.13;4.95;;;16.90;99.90;;;;;;5046985;28;20045;-64
2022/10/19 12:55:11;;;;;;;20.08;4.53;;;16.90;99.90;;;;;;5045438;28;20508;-65
2022/10/19 12:57:38;;;;;;;17.92;4.15;;;16.80;99.90;;;;;;5047019;28;20045;-64
2022/10/19 13:00:22;;;;;;;24.08;5.28;;;16.80;99.90;;;;;;5048087;28;20408;-65
2022/10/19 13:03:15;;;;;;;30.77;5.82;;;16.80;99.90;;;;;;5049888;28;20487;-64